ジッダ の空港の天気 - METARとTAF

キング・アブドゥルアズィーズ国際空港(ジッダ) ( OEJN / JED ) - サウジアラビア ジッダ
飛行場実況気象(Metar)
観測時間09/22 00:00 AST (09/21 21:00 UTC)
風向・風速北北西 3m/s
視程10km以上
天気現象
少しの雲 雲底高度 1220m
気温30℃
湿度66%
気圧1005hPa
METAROEJN 212100Z 34006KT 9999 FEW040 30/23 Q1005 NOSIG
過去の天気等 Google飛行場航空写真 Wunderground天気予報

過去48時間のMETAR

飛行場予報(TAF)
発表時間: 9/21 20:00 AST (9/21 17:00 UTC)
予報対象時間: 21日21時 AST ~ 23日3時 AST
風向・風速北 5m/s
視程7,000m
なし
22日2時 AST ~ 22日4時 AST に徐々に
風向・風速北北東 3m/s
22日9時 AST ~ 22日11時 AST に徐々に
風向・風速北北西 8m/s
視程10km以上
少しの雲 雲底高度 910m
TAF OEJN 211700Z 2118/2224 35010KT 7000 NSC
BECMG 2123/2201 02006KT
BECMG 2206/2208 33016KT 9999 FEW030